createdAt,value
2023-02-07T00:02:46.174Z,74.57
2023-02-07T00:07:48.426Z,74.35
2023-02-07T00:12:50.719Z,75.18
2023-02-07T00:17:53.014Z,74.81
2023-02-07T00:22:55.430Z,74.72
2023-02-07T00:27:57.676Z,73.54
2023-02-07T00:33:00.041Z,74.11
2023-02-07T00:38:02.315Z,72.22
2023-02-07T00:43:04.660Z,72.98
2023-02-07T00:48:07.039Z,74.52
2023-02-07T00:53:09.289Z,72.97
2023-02-07T00:58:11.498Z,74.41
2023-02-07T01:03:14.884Z,74.33
2023-02-07T01:08:17.417Z,72.32
2023-02-07T01:13:19.630Z,69.97
2023-02-07T01:18:21.911Z,69.47
2023-02-07T01:23:24.202Z,67.32
2023-02-07T01:28:26.513Z,64.50
2023-02-07T01:33:28.729Z,62.10
2023-02-07T01:38:31.631Z,61.73
2023-02-07T01:43:34.024Z,61.66
2023-02-07T01:48:37.909Z,62.36
2023-02-07T01:53:41.296Z,61.49
2023-02-07T01:58:43.948Z,62.37
2023-02-07T02:03:49.537Z,62.57
2023-02-07T02:09:00.578Z,62.00
2023-02-07T02:14:42.432Z,62.16
2023-02-07T02:20:58.706Z,62.34
2023-02-07T02:26:32.992Z,62.36
2023-02-07T02:31:59.377Z,60.67
2023-02-07T02:37:24.296Z,62.54
2023-02-07T02:42:55.820Z,62.87
2023-02-07T02:47:58.662Z,63.16
2023-02-07T02:53:01.063Z,62.68
2023-02-07T02:58:32.700Z,63.29
2023-02-07T03:03:54.955Z,61.87
2023-02-07T03:09:26.338Z,60.76
2023-02-07T03:14:53.530Z,61.80
2023-02-07T03:20:22.734Z,61.21
2023-02-07T03:25:25.583Z,62.11
2023-02-07T03:30:33.770Z,61.21
2023-02-07T03:35:58.130Z,59.98
2023-02-07T03:41:12.136Z,59.00
2023-02-07T03:46:14.391Z,61.17
2023-02-07T03:51:16.678Z,60.92
2023-02-07T03:56:18.903Z,62.09
2023-02-07T04:01:21.377Z,66.15
2023-02-07T04:06:24.019Z,64.23
2023-02-07T04:11:26.366Z,64.18
2023-02-07T04:16:28.812Z,63.36
2023-02-07T04:21:31.128Z,64.03
2023-02-07T04:26:33.513Z,65.34
2023-02-07T04:31:37.739Z,68.05
2023-02-07T04:36:40.052Z,66.60
2023-02-07T04:41:42.344Z,65.52
2023-02-07T04:46:44.556Z,65.28
2023-02-07T04:51:46.843Z,66.75
2023-02-07T04:56:49.093Z,67.90
2023-02-07T05:01:51.388Z,67.05
2023-02-07T05:06:53.625Z,66.71
2023-02-07T05:11:55.746Z,67.90
2023-02-07T05:16:58.039Z,66.35
2023-02-07T05:22:00.321Z,67.54
2023-02-07T05:27:02.666Z,68.62
2023-02-07T05:32:23.937Z,68.96
2023-02-07T05:37:26.517Z,69.97
2023-02-07T05:42:28.634Z,70.67
2023-02-07T05:47:30.745Z,69.93
2023-02-07T05:52:35.574Z,70.66
2023-02-07T05:57:38.002Z,70.86
2023-02-07T06:02:41.196Z,71.33
2023-02-07T06:07:44.405Z,70.95
2023-02-07T06:12:47.071Z,70.86
2023-02-07T06:17:49.337Z,69.11
2023-02-07T06:22:52.391Z,68.47
2023-02-07T06:27:54.731Z,70.80
2023-02-07T06:32:57.288Z,71.15
2023-02-07T06:38:00.620Z,71.80
2023-02-07T06:43:02.910Z,71.72
2023-02-07T06:48:05.366Z,69.86
2023-02-07T06:53:07.614Z,70.34
2023-02-07T06:58:09.960Z,68.88
2023-02-07T07:03:16.654Z,67.47
2023-02-07T07:08:19.137Z,67.45
2023-02-07T07:13:21.440Z,69.80
2023-02-07T07:18:23.561Z,70.92
2023-02-07T07:23:25.752Z,69.48
2023-02-07T07:28:28.084Z,70.11
2023-02-07T07:33:30.280Z,68.69
2023-02-07T07:38:33.240Z,69.26
2023-02-07T07:43:35.366Z,70.41
2023-02-07T07:48:37.502Z,71.23
2023-02-07T07:53:39.668Z,69.37
2023-02-07T07:58:42.016Z,71.72
2023-02-07T08:03:44.152Z,69.87
2023-02-07T08:08:47.371Z,70.53
2023-02-07T08:13:50.511Z,69.77
2023-02-07T08:18:53.795Z,68.23
2023-02-07T08:23:56.296Z,69.53
2023-02-07T08:28:58.543Z,69.47
2023-02-07T08:34:00.968Z,68.31
2023-02-07T08:39:05.731Z,67.08
2023-02-07T08:44:08.813Z,67.71
2023-02-07T08:49:11.012Z,66.29
2023-02-07T08:54:13.532Z,67.70
2023-02-07T08:59:15.983Z,65.13
2023-02-07T09:04:18.432Z,67.25
2023-02-07T09:09:20.744Z,68.31
2023-02-07T09:14:23.117Z,68.11
2023-02-07T09:19:25.621Z,67.26
2023-02-07T09:24:28.092Z,66.64
2023-02-07T09:29:30.329Z,65.29
2023-02-07T09:34:35.972Z,64.12
2023-02-07T09:39:39.271Z,63.72
2023-02-07T09:45:10.571Z,63.91
2023-02-07T09:50:23.456Z,63.42
2023-02-07T09:55:53.124Z,63.89
2023-02-07T10:01:22.708Z,64.03
2023-02-07T10:06:28.694Z,64.01
2023-02-07T10:11:52.716Z,62.38
2023-02-07T10:17:12.173Z,61.85
2023-02-07T10:22:37.601Z,62.47
2023-02-07T10:28:00.797Z,61.57
2023-02-07T10:33:16.254Z,61.84
2023-02-07T10:39:07.747Z,59.85
2023-02-07T10:44:18.503Z,62.10
2023-02-07T10:49:28.328Z,62.31
2023-02-07T10:54:30.745Z,60.02
2023-02-07T10:59:46.020Z,59.12
2023-02-07T11:04:48.321Z,58.39
2023-02-07T11:09:50.629Z,59.76
2023-02-07T11:15:11.436Z,59.27
2023-02-07T11:20:40.988Z,59.01
2023-02-07T11:25:47.377Z,58.30
2023-02-07T11:31:05.891Z,58.93
2023-02-07T11:36:25.534Z,58.11
2023-02-07T11:41:34.115Z,57.58
2023-02-07T11:46:45.393Z,55.99
2023-02-07T11:51:56.616Z,56.70
2023-02-07T11:57:12.882Z,54.65
2023-02-07T12:02:23.590Z,55.26
2023-02-07T12:07:36.209Z,55.54
2023-02-07T12:13:01.096Z,55.81
2023-02-07T12:18:11.785Z,53.57
2023-02-07T12:23:41.942Z,53.83
2023-02-07T12:28:53.310Z,54.17
2023-02-07T12:34:17.915Z,54.05
2023-02-07T12:39:39.908Z,53.99
2023-02-07T12:44:52.454Z,52.87
2023-02-07T12:50:12.100Z,53.68
2023-02-07T12:55:43.682Z,53.07
2023-02-07T13:01:16.069Z,52.61
2023-02-07T13:06:49.161Z,53.81
2023-02-07T13:12:13.680Z,53.76
2023-02-07T13:17:53.854Z,54.15
2023-02-07T13:23:03.469Z,55.57
2023-02-07T13:28:30.540Z,52.91
2023-02-07T13:33:40.327Z,52.88
2023-02-07T13:39:11.891Z,54.30
2023-02-07T13:44:32.033Z,53.44
2023-02-07T13:49:49.109Z,53.62
2023-02-07T13:55:15.107Z,54.38
2023-02-07T14:00:25.156Z,54.41
2023-02-07T14:05:35.535Z,54.52
2023-02-07T14:10:52.786Z,54.27
2023-02-07T14:15:58.113Z,55.02
2023-02-07T14:21:06.066Z,53.78
2023-02-07T14:26:39.395Z,53.99
2023-02-07T14:31:54.045Z,55.23
2023-02-07T14:36:56.857Z,52.37
2023-02-07T14:42:16.175Z,53.70
2023-02-07T14:47:25.846Z,54.39
2023-02-07T14:52:33.345Z,55.37
2023-02-07T14:58:01.281Z,54.08
2023-02-07T15:03:19.456Z,55.90
2023-02-07T15:08:28.605Z,55.71
2023-02-07T15:13:36.865Z,55.42
2023-02-07T15:18:48.496Z,56.77
2023-02-07T15:24:49.566Z,56.17
2023-02-07T15:30:01.477Z,58.54
2023-02-07T15:35:39.635Z,57.35
2023-02-07T15:40:42.643Z,58.83
2023-02-07T15:46:09.619Z,57.24
2023-02-07T15:51:14.063Z,59.45
2023-02-07T15:56:16.621Z,59.28
2023-02-07T16:01:28.497Z,60.13
2023-02-07T16:06:32.748Z,60.31
2023-02-07T16:11:39.994Z,60.98
2023-02-07T16:16:51.579Z,62.07
2023-02-07T16:22:14.042Z,62.03
2023-02-07T16:27:30.375Z,61.91
2023-02-07T16:32:36.101Z,61.87
2023-02-07T16:37:38.368Z,63.05
2023-02-07T16:42:42.869Z,65.16
2023-02-07T16:47:45.561Z,67.25
2023-02-07T16:52:50.129Z,67.26
2023-02-07T16:57:53.526Z,67.67
2023-02-07T17:02:55.816Z,68.66
2023-02-07T17:07:58.111Z,69.58
2023-02-07T17:13:00.562Z,69.66
2023-02-07T17:18:03.686Z,67.75
2023-02-07T17:23:05.995Z,68.06
2023-02-07T17:28:11.632Z,68.85
2023-02-07T17:33:14.069Z,68.76
2023-02-07T17:38:16.531Z,69.55
2023-02-07T17:43:18.850Z,69.54
2023-02-07T17:48:21.165Z,67.07
2023-02-07T17:53:23.538Z,68.44
2023-02-07T17:58:25.857Z,68.20
2023-02-07T18:03:28.390Z,68.18
2023-02-07T18:08:30.669Z,69.18
2023-02-07T18:13:35.803Z,70.42
2023-02-07T18:18:39.911Z,71.38
2023-02-07T18:23:43.156Z,69.92
2023-02-07T18:28:46.573Z,70.69
2023-02-07T18:33:54.709Z,68.95
2023-02-07T18:38:58.453Z,68.51
2023-02-07T18:44:00.589Z,68.83
2023-02-07T18:49:02.762Z,68.32
2023-02-07T18:54:05.278Z,71.61
2023-02-07T18:59:07.663Z,71.51
2023-02-07T19:04:09.896Z,70.40
2023-02-07T19:09:12.656Z,71.30
2023-02-07T19:14:18.900Z,72.11
2023-02-07T19:19:21.806Z,72.78
2023-02-07T19:24:25.303Z,74.17
2023-02-07T19:29:30.067Z,70.76
2023-02-07T19:34:33.571Z,69.45
2023-02-07T19:39:35.696Z,72.08
2023-02-07T19:44:37.806Z,75.79
2023-02-07T19:49:39.998Z,75.00
2023-02-07T19:54:42.349Z,73.90
2023-02-07T19:59:46.101Z,69.53
2023-02-07T20:04:49.111Z,71.04
2023-02-07T20:09:51.302Z,73.06
2023-02-07T20:14:53.559Z,70.58
2023-02-07T20:19:55.788Z,71.22
2023-02-07T20:24:57.906Z,72.58
2023-02-07T20:30:00.123Z,70.27
2023-02-07T20:35:02.281Z,73.03
2023-02-07T20:40:04.752Z,73.81
2023-02-07T20:45:07.798Z,70.22
2023-02-07T20:50:10.161Z,70.22
2023-02-07T20:55:12.534Z,73.56
2023-02-07T21:00:15.570Z,72.46
2023-02-07T21:05:18.061Z,69.75
2023-02-07T21:10:20.348Z,69.85
2023-02-07T21:15:25.358Z,68.73
2023-02-07T21:20:28.054Z,72.85
2023-02-07T21:25:31.859Z,75.24
2023-02-07T21:30:34.951Z,74.95
2023-02-07T21:35:37.434Z,73.03
2023-02-07T21:40:39.800Z,70.95
2023-02-07T21:45:42.036Z,71.22
2023-02-07T21:50:44.340Z,68.69
2023-02-07T21:55:46.529Z,71.99
2023-02-07T22:00:48.815Z,70.98
2023-02-07T22:05:52.675Z,71.54
2023-02-07T22:10:54.977Z,73.02
2023-02-07T22:15:57.206Z,75.85
2023-02-07T22:21:18.646Z,74.70
2023-02-07T22:26:21.846Z,73.33
2023-02-07T22:31:28.463Z,74.35
2023-02-07T22:36:34.354Z,74.10
2023-02-07T22:41:37.082Z,71.46
2023-02-07T22:46:40.282Z,75.34
2023-02-07T22:51:42.452Z,71.98
2023-02-07T22:56:46.204Z,73.17
2023-02-07T23:01:48.580Z,71.17
2023-02-07T23:06:52.196Z,71.29
2023-02-07T23:11:54.487Z,73.00
2023-02-07T23:16:56.761Z,70.83
2023-02-07T23:21:59.693Z,73.63
2023-02-07T23:27:02.028Z,69.58
2023-02-07T23:32:04.924Z,71.75
2023-02-07T23:37:07.182Z,74.99
2023-02-07T23:42:10.601Z,75.29
2023-02-07T23:47:13.029Z,74.52
2023-02-07T23:52:15.339Z,71.21
2023-02-07T23:57:17.606Z,74.87
